sensor_id;sensor_type;location;lat;lon;timestamp;temperature;humidity
8595;DHT22;4335;48.860;9.198;2023-07-08T00:01:14;22.80;57.90
8595;DHT22;4335;48.860;9.198;2023-07-08T00:03:42;22.70;57.20
8595;DHT22;4335;48.860;9.198;2023-07-08T00:06:17;22.70;57.00
8595;DHT22;4335;48.860;9.198;2023-07-08T00:08:45;22.70;57.30
8595;DHT22;4335;48.860;9.198;2023-07-08T00:11:21;22.60;57.30
8595;DHT22;4335;48.860;9.198;2023-07-08T00:13:51;22.60;57.30
8595;DHT22;4335;48.860;9.198;2023-07-08T00:16:19;22.60;57.80
8595;DHT22;4335;48.860;9.198;2023-07-08T00:18:46;22.60;58.00
8595;DHT22;4335;48.860;9.198;2023-07-08T00:21:16;22.50;58.20
8595;DHT22;4335;48.860;9.198;2023-07-08T00:23:47;22.50;58.10
8595;DHT22;4335;48.860;9.198;2023-07-08T00:26:21;22.50;58.00
8595;DHT22;4335;48.860;9.198;2023-07-08T00:28:56;22.50;57.90
8595;DHT22;4335;48.860;9.198;2023-07-08T00:31:29;22.40;57.70
8595;DHT22;4335;48.860;9.198;2023-07-08T00:33:57;22.40;58.30
8595;DHT22;4335;48.860;9.198;2023-07-08T00:36:27;22.40;58.70
8595;DHT22;4335;48.860;9.198;2023-07-08T00:38:54;22.40;58.70
8595;DHT22;4335;48.860;9.198;2023-07-08T00:41:25;22.40;58.40
8595;DHT22;4335;48.860;9.198;2023-07-08T00:43:54;22.40;58.50
8595;DHT22;4335;48.860;9.198;2023-07-08T00:46:34;22.30;58.90
8595;DHT22;4335;48.860;9.198;2023-07-08T00:49:17;22.30;58.60
8595;DHT22;4335;48.860;9.198;2023-07-08T00:51:47;22.30;58.40
8595;DHT22;4335;48.860;9.198;2023-07-08T00:54:17;22.30;58.70
8595;DHT22;4335;48.860;9.198;2023-07-08T00:56:47;22.20;58.30
8595;DHT22;4335;48.860;9.198;2023-07-08T00:59:22;22.20;59.50
8595;DHT22;4335;48.860;9.198;2023-07-08T01:01:52;22.20;60.20
8595;DHT22;4335;48.860;9.198;2023-07-08T01:04:24;22.20;60.20
8595;DHT22;4335;48.860;9.198;2023-07-08T01:06:56;22.20;60.80
8595;DHT22;4335;48.860;9.198;2023-07-08T01:09:29;22.20;60.80
8595;DHT22;4335;48.860;9.198;2023-07-08T01:12:02;22.20;61.00
8595;DHT22;4335;48.860;9.198;2023-07-08T01:14:32;22.10;60.60
8595;DHT22;4335;48.860;9.198;2023-07-08T01:17:08;22.10;60.60
8595;DHT22;4335;48.860;9.198;2023-07-08T01:19:40;22.00;60.60
8595;DHT22;4335;48.860;9.198;2023-07-08T01:22:09;22.00;60.60
8595;DHT22;4335;48.860;9.198;2023-07-08T01:24:41;22.00;59.80
8595;DHT22;4335;48.860;9.198;2023-07-08T01:27:18;22.00;60.70
8595;DHT22;4335;48.860;9.198;2023-07-08T01:29:46;22.00;60.10
8595;DHT22;4335;48.860;9.198;2023-07-08T01:32:15;21.90;60.10
8595;DHT22;4335;48.860;9.198;2023-07-08T01:34:45;21.90;59.90
8595;DHT22;4335;48.860;9.198;2023-07-08T01:37:34;21.80;60.60
8595;DHT22;4335;48.860;9.198;2023-07-08T01:40:28;21.80;61.30
8595;DHT22;4335;48.860;9.198;2023-07-08T01:42:56;21.80;62.30
8595;DHT22;4335;48.860;9.198;2023-07-08T01:45:29;21.80;62.00
8595;DHT22;4335;48.860;9.198;2023-07-08T01:48:00;21.80;62.50
8595;DHT22;4335;48.860;9.198;2023-07-08T01:50:29;21.80;62.60
8595;DHT22;4335;48.860;9.198;2023-07-08T01:53:08;21.70;63.10
8595;DHT22;4335;48.860;9.198;2023-07-08T01:55:40;21.70;61.90
8595;DHT22;4335;48.860;9.198;2023-07-08T01:58:09;21.70;61.40
8595;DHT22;4335;48.860;9.198;2023-07-08T02:00:36;21.60;61.10
8595;DHT22;4335;48.860;9.198;2023-07-08T02:03:03;21.60;61.50
8595;DHT22;4335;48.860;9.198;2023-07-08T02:05:31;21.60;62.00
8595;DHT22;4335;48.860;9.198;2023-07-08T02:08:01;21.60;62.80
8595;DHT22;4335;48.860;9.198;2023-07-08T02:10:30;21.50;63.40
8595;DHT22;4335;48.860;9.198;2023-07-08T02:12:58;21.50;63.90
8595;DHT22;4335;48.860;9.198;2023-07-08T02:15:28;21.40;64.30
8595;DHT22;4335;48.860;9.198;2023-07-08T02:17:55;21.40;65.00
8595;DHT22;4335;48.860;9.198;2023-07-08T02:20:23;21.40;65.60
8595;DHT22;4335;48.860;9.198;2023-07-08T02:22:50;21.40;64.80
8595;DHT22;4335;48.860;9.198;2023-07-08T02:25:17;21.30;65.00
8595;DHT22;4335;48.860;9.198;2023-07-08T02:27:46;21.30;65.70
8595;DHT22;4335;48.860;9.198;2023-07-08T02:30:17;21.30;66.50
8595;DHT22;4335;48.860;9.198;2023-07-08T02:32:44;21.20;66.10
8595;DHT22;4335;48.860;9.198;2023-07-08T02:35:23;21.20;67.40
8595;DHT22;4335;48.860;9.198;2023-07-08T02:37:51;21.20;68.30
8595;DHT22;4335;48.860;9.198;2023-07-08T02:40:19;21.20;68.10
8595;DHT22;4335;48.860;9.198;2023-07-08T02:42:48;21.20;68.30
8595;DHT22;4335;48.860;9.198;2023-07-08T02:45:18;21.20;67.80
8595;DHT22;4335;48.860;9.198;2023-07-08T02:47:48;21.10;68.30
8595;DHT22;4335;48.860;9.198;2023-07-08T02:50:16;21.10;68.90
8595;DHT22;4335;48.860;9.198;2023-07-08T02:52:44;21.10;69.20
8595;DHT22;4335;48.860;9.198;2023-07-08T02:55:18;21.10;69.30
8595;DHT22;4335;48.860;9.198;2023-07-08T02:57:46;21.10;69.90
8595;DHT22;4335;48.860;9.198;2023-07-08T03:00:17;21.10;70.20
8595;DHT22;4335;48.860;9.198;2023-07-08T03:02:51;21.10;70.90
8595;DHT22;4335;48.860;9.198;2023-07-08T03:05:18;21.10;71.50
8595;DHT22;4335;48.860;9.198;2023-07-08T03:07:46;21.10;71.90
8595;DHT22;4335;48.860;9.198;2023-07-08T03:10:13;21.10;72.30
8595;DHT22;4335;48.860;9.198;2023-07-08T03:12:40;21.10;73.00
8595;DHT22;4335;48.860;9.198;2023-07-08T03:15:10;21.10;73.80
8595;DHT22;4335;48.860;9.198;2023-07-08T03:17:40;21.10;74.40
8595;DHT22;4335;48.860;9.198;2023-07-08T03:20:09;21.00;74.70
8595;DHT22;4335;48.860;9.198;2023-07-08T03:22:43;21.00;74.50
8595;DHT22;4335;48.860;9.198;2023-07-08T03:25:19;20.90;74.80
8595;DHT22;4335;48.860;9.198;2023-07-08T03:27:50;20.90;75.80
8595;DHT22;4335;48.860;9.198;2023-07-08T03:30:18;20.90;76.40
8595;DHT22;4335;48.860;9.198;2023-07-08T03:32:49;20.90;77.10
8595;DHT22;4335;48.860;9.198;2023-07-08T03:35:16;20.80;77.70
8595;DHT22;4335;48.860;9.198;2023-07-08T03:37:44;20.80;78.50
8595;DHT22;4335;48.860;9.198;2023-07-08T03:40:12;20.80;78.80
8595;DHT22;4335;48.860;9.198;2023-07-08T03:42:39;20.80;79.40
8595;DHT22;4335;48.860;9.198;2023-07-08T03:45:07;20.80;78.90
8595;DHT22;4335;48.860;9.198;2023-07-08T03:47:42;20.80;79.20
8595;DHT22;4335;48.860;9.198;2023-07-08T03:50:16;20.80;80.30
8595;DHT22;4335;48.860;9.198;2023-07-08T03:52:45;20.80;80.50
8595;DHT22;4335;48.860;9.198;2023-07-08T03:55:16;20.90;80.60
8595;DHT22;4335;48.860;9.198;2023-07-08T03:57:43;21.00;78.90
8595;DHT22;4335;48.860;9.198;2023-07-08T04:00:12;21.10;78.50
8595;DHT22;4335;48.860;9.198;2023-07-08T04:02:56;21.20;79.70
8595;DHT22;4335;48.860;9.198;2023-07-08T04:05:23;21.40;80.60
8595;DHT22;4335;48.860;9.198;2023-07-08T04:08:00;21.40;80.80
8595;DHT22;4335;48.860;9.198;2023-07-08T04:10:39;21.50;82.30
8595;DHT22;4335;48.860;9.198;2023-07-08T04:13:07;21.50;81.80
8595;DHT22;4335;48.860;9.198;2023-07-08T04:15:34;21.70;81.90
8595;DHT22;4335;48.860;9.198;2023-07-08T04:18:09;21.90;81.90
8595;DHT22;4335;48.860;9.198;2023-07-08T04:20:42;22.00;81.40
8595;DHT22;4335;48.860;9.198;2023-07-08T04:23:10;22.20;79.80
8595;DHT22;4335;48.860;9.198;2023-07-08T04:25:43;22.50;80.10
8595;DHT22;4335;48.860;9.198;2023-07-08T04:28:14;22.80;79.40
8595;DHT22;4335;48.860;9.198;2023-07-08T04:30:42;23.00;78.20
8595;DHT22;4335;48.860;9.198;2023-07-08T04:33:13;23.40;76.20
8595;DHT22;4335;48.860;9.198;2023-07-08T04:35:41;23.70;75.10
8595;DHT22;4335;48.860;9.198;2023-07-08T04:38:18;24.00;74.90
8595;DHT22;4335;48.860;9.198;2023-07-08T04:40:47;24.40;73.90
8595;DHT22;4335;48.860;9.198;2023-07-08T04:43:18;24.60;71.60
8595;DHT22;4335;48.860;9.198;2023-07-08T04:45:48;24.70;70.70
8595;DHT22;4335;48.860;9.198;2023-07-08T04:48:19;24.80;69.30
8595;DHT22;4335;48.860;9.198;2023-07-08T04:50:51;24.60;66.60
8595;DHT22;4335;48.860;9.198;2023-07-08T04:53:19;24.20;67.10
8595;DHT22;4335;48.860;9.198;2023-07-08T04:55:48;24.00;68.00
8595;DHT22;4335;48.860;9.198;2023-07-08T04:58:17;23.70;67.80
8595;DHT22;4335;48.860;9.198;2023-07-08T05:00:47;23.60;68.30
8595;DHT22;4335;48.860;9.198;2023-07-08T05:03:31;23.50;68.70
8595;DHT22;4335;48.860;9.198;2023-07-08T05:05:58;23.40;69.20
8595;DHT22;4335;48.860;9.198;2023-07-08T05:08:32;23.30;69.20
8595;DHT22;4335;48.860;9.198;2023-07-08T05:10:59;23.10;69.70
8595;DHT22;4335;48.860;9.198;2023-07-08T05:13:29;23.10;70.90
8595;DHT22;4335;48.860;9.198;2023-07-08T05:15:57;23.00;71.80
8595;DHT22;4335;48.860;9.198;2023-07-08T05:18:24;23.00;72.40
8595;DHT22;4335;48.860;9.198;2023-07-08T05:20:56;23.00;72.80
8595;DHT22;4335;48.860;9.198;2023-07-08T05:23:27;23.00;73.60
8595;DHT22;4335;48.860;9.198;2023-07-08T05:25:54;23.00;74.20
8595;DHT22;4335;48.860;9.198;2023-07-08T05:28:21;23.10;74.70
8595;DHT22;4335;48.860;9.198;2023-07-08T05:30:53;23.40;74.60
8595;DHT22;4335;48.860;9.198;2023-07-08T05:33:21;23.90;74.30
8595;DHT22;4335;48.860;9.198;2023-07-08T05:35:52;24.50;73.20
8595;DHT22;4335;48.860;9.198;2023-07-08T05:38:25;25.00;70.80
8595;DHT22;4335;48.860;9.198;2023-07-08T05:40:55;25.30;70.20
8595;DHT22;4335;48.860;9.198;2023-07-08T05:43:23;25.00;70.90
8595;DHT22;4335;48.860;9.198;2023-07-08T05:45:51;25.10;71.30
8595;DHT22;4335;48.860;9.198;2023-07-08T05:48:18;25.00;70.90
8595;DHT22;4335;48.860;9.198;2023-07-08T05:50:55;25.00;71.80
8595;DHT22;4335;48.860;9.198;2023-07-08T05:53:29;24.90;72.00
8595;DHT22;4335;48.860;9.198;2023-07-08T05:55:57;24.80;72.40
8595;DHT22;4335;48.860;9.198;2023-07-08T05:58:24;24.70;72.90
8595;DHT22;4335;48.860;9.198;2023-07-08T06:00:58;24.70;73.40
8595;DHT22;4335;48.860;9.198;2023-07-08T06:03:26;24.70;74.00
8595;DHT22;4335;48.860;9.198;2023-07-08T06:05:53;24.70;73.70
8595;DHT22;4335;48.860;9.198;2023-07-08T06:08:25;24.80;74.00
8595;DHT22;4335;48.860;9.198;2023-07-08T06:10:56;25.00;74.50
8595;DHT22;4335;48.860;9.198;2023-07-08T06:13:26;25.40;74.40
8595;DHT22;4335;48.860;9.198;2023-07-08T06:15:54;26.00;74.30
8595;DHT22;4335;48.860;9.198;2023-07-08T06:18:21;26.70;73.40
8595;DHT22;4335;48.860;9.198;2023-07-08T06:20:53;27.30;70.80
8595;DHT22;4335;48.860;9.198;2023-07-08T06:23:23;27.90;69.00
8595;DHT22;4335;48.860;9.198;2023-07-08T06:25:55;28.30;67.10
8595;DHT22;4335;48.860;9.198;2023-07-08T06:28:23;29.00;66.60
8595;DHT22;4335;48.860;9.198;2023-07-08T06:30:58;29.50;64.80
8595;DHT22;4335;48.860;9.198;2023-07-08T06:33:25;30.10;63.70
8595;DHT22;4335;48.860;9.198;2023-07-08T06:35:53;30.60;61.80
8595;DHT22;4335;48.860;9.198;2023-07-08T06:38:20;30.80;59.10
8595;DHT22;4335;48.860;9.198;2023-07-08T06:40:51;31.20;57.60
8595;DHT22;4335;48.860;9.198;2023-07-08T06:43:19;31.60;56.20
8595;DHT22;4335;48.860;9.198;2023-07-08T06:45:50;31.70;55.70
8595;DHT22;4335;48.860;9.198;2023-07-08T06:48:17;32.30;55.30
8595;DHT22;4335;48.860;9.198;2023-07-08T06:50:46;33.00;54.40
8595;DHT22;4335;48.860;9.198;2023-07-08T06:53:14;33.80;52.70
8595;DHT22;4335;48.860;9.198;2023-07-08T06:55:44;34.60;51.10
8595;DHT22;4335;48.860;9.198;2023-07-08T06:58:19;35.50;49.10
8595;DHT22;4335;48.860;9.198;2023-07-08T07:02:13;36.00;48.10
8595;DHT22;4335;48.860;9.198;2023-07-08T07:03:53;36.90;46.80
8595;DHT22;4335;48.860;9.198;2023-07-08T07:06:24;37.70;45.00
8595;DHT22;4335;48.860;9.198;2023-07-08T07:08:56;37.70;44.30
8595;DHT22;4335;48.860;9.198;2023-07-08T07:11:23;36.60;43.70
8595;DHT22;4335;48.860;9.198;2023-07-08T07:13:52;36.00;45.00
8595;DHT22;4335;48.860;9.198;2023-07-08T07:16:20;34.90;46.20
8595;DHT22;4335;48.860;9.198;2023-07-08T07:18:50;33.90;47.50
8595;DHT22;4335;48.860;9.198;2023-07-08T07:21:18;33.20;48.70
8595;DHT22;4335;48.860;9.198;2023-07-08T07:23:45;32.60;49.70
8595;DHT22;4335;48.860;9.198;2023-07-08T07:26:12;32.20;50.60
8595;DHT22;4335;48.860;9.198;2023-07-08T07:28:42;31.90;51.60
8595;DHT22;4335;48.860;9.198;2023-07-08T07:31:14;31.50;52.60
8595;DHT22;4335;48.860;9.198;2023-07-08T07:33:44;31.10;53.00
8595;DHT22;4335;48.860;9.198;2023-07-08T07:36:14;30.80;53.40
8595;DHT22;4335;48.860;9.198;2023-07-08T07:38:41;30.40;53.90
8595;DHT22;4335;48.860;9.198;2023-07-08T07:41:09;30.20;54.00
8595;DHT22;4335;48.860;9.198;2023-07-08T07:43:38;30.20;55.00
8595;DHT22;4335;48.860;9.198;2023-07-08T07:46:06;30.20;54.50
8595;DHT22;4335;48.860;9.198;2023-07-08T07:48:35;30.30;54.40
8595;DHT22;4335;48.860;9.198;2023-07-08T07:51:03;30.50;54.30
8595;DHT22;4335;48.860;9.198;2023-07-08T07:53:31;30.80;54.00
8595;DHT22;4335;48.860;9.198;2023-07-08T07:56:05;31.10;53.20
8595;DHT22;4335;48.860;9.198;2023-07-08T07:58:32;31.90;52.80
8595;DHT22;4335;48.860;9.198;2023-07-08T08:01:00;32.40;52.10
8595;DHT22;4335;48.860;9.198;2023-07-08T08:03:31;32.80;51.30
8595;DHT22;4335;48.860;9.198;2023-07-08T08:05:59;33.10;50.80
8595;DHT22;4335;48.860;9.198;2023-07-08T08:08:34;33.30;50.70
8595;DHT22;4335;48.860;9.198;2023-07-08T08:11:05;33.60;50.10
8595;DHT22;4335;48.860;9.198;2023-07-08T08:13:32;33.90;49.70
8595;DHT22;4335;48.860;9.198;2023-07-08T08:16:03;34.40;49.20
8595;DHT22;4335;48.860;9.198;2023-07-08T08:18:31;34.80;48.60
8595;DHT22;4335;48.860;9.198;2023-07-08T08:21:03;35.50;47.90
8595;DHT22;4335;48.860;9.198;2023-07-08T08:23:30;36.40;46.50
8595;DHT22;4335;48.860;9.198;2023-07-08T08:26:00;37.40;44.20
8595;DHT22;4335;48.860;9.198;2023-07-08T08:28:28;37.90;42.90
8595;DHT22;4335;48.860;9.198;2023-07-08T08:30:55;38.70;42.30
8595;DHT22;4335;48.860;9.198;2023-07-08T08:33:23;38.90;41.50
8595;DHT22;4335;48.860;9.198;2023-07-08T08:35:50;39.30;40.90
8595;DHT22;4335;48.860;9.198;2023-07-08T08:38:21;40.50;40.50
8595;DHT22;4335;48.860;9.198;2023-07-08T08:40:49;41.20;38.40
8595;DHT22;4335;48.860;9.198;2023-07-08T08:43:21;41.60;37.10
8595;DHT22;4335;48.860;9.198;2023-07-08T08:46:02;42.30;36.50
8595;DHT22;4335;48.860;9.198;2023-07-08T08:48:48;42.60;35.70
8595;DHT22;4335;48.860;9.198;2023-07-08T08:51:20;42.10;35.90
8595;DHT22;4335;48.860;9.198;2023-07-08T08:53:57;41.50;36.30
8595;DHT22;4335;48.860;9.198;2023-07-08T08:56:31;42.30;35.40
8595;DHT22;4335;48.860;9.198;2023-07-08T08:59:11;42.60;34.90
8595;DHT22;4335;48.860;9.198;2023-07-08T09:01:45;43.20;33.90
8595;DHT22;4335;48.860;9.198;2023-07-08T09:04:19;43.70;33.00
8595;DHT22;4335;48.860;9.198;2023-07-08T09:06:48;43.50;32.70
8595;DHT22;4335;48.860;9.198;2023-07-08T09:09:27;43.70;32.30
8595;DHT22;4335;48.860;9.198;2023-07-08T09:12:03;44.00;32.50
8595;DHT22;4335;48.860;9.198;2023-07-08T09:14:35;44.40;32.20
8595;DHT22;4335;48.860;9.198;2023-07-08T09:17:15;44.50;31.40
8595;DHT22;4335;48.860;9.198;2023-07-08T09:19:47;45.60;30.90
8595;DHT22;4335;48.860;9.198;2023-07-08T09:22:22;45.60;30.00
8595;DHT22;4335;48.860;9.198;2023-07-08T09:25:01;44.20;30.50
8595;DHT22;4335;48.860;9.198;2023-07-08T09:27:30;43.30;31.90
8595;DHT22;4335;48.860;9.198;2023-07-08T09:30:00;42.70;32.20
8595;DHT22;4335;48.860;9.198;2023-07-08T09:32:28;42.20;33.00
8595;DHT22;4335;48.860;9.198;2023-07-08T09:35:03;41.80;33.60
8595;DHT22;4335;48.860;9.198;2023-07-08T09:37:35;42.30;33.30
8595;DHT22;4335;48.860;9.198;2023-07-08T09:40:18;43.10;32.90
8595;DHT22;4335;48.860;9.198;2023-07-08T09:42:52;43.60;31.90
8595;DHT22;4335;48.860;9.198;2023-07-08T09:45:21;44.00;30.80
8595;DHT22;4335;48.860;9.198;2023-07-08T09:47:56;44.40;30.30
8595;DHT22;4335;48.860;9.198;2023-07-08T09:50:25;45.20;30.10
8595;DHT22;4335;48.860;9.198;2023-07-08T09:52:54;45.50;29.80
8595;DHT22;4335;48.860;9.198;2023-07-08T09:55:24;45.60;29.50
8595;DHT22;4335;48.860;9.198;2023-07-08T09:57:54;45.80;29.40
8595;DHT22;4335;48.860;9.198;2023-07-08T10:00:34;45.80;29.10
8595;DHT22;4335;48.860;9.198;2023-07-08T10:03:11;45.50;28.20
8595;DHT22;4335;48.860;9.198;2023-07-08T10:05:47;45.10;29.00
8595;DHT22;4335;48.860;9.198;2023-07-08T10:08:17;44.70;29.00
8595;DHT22;4335;48.860;9.198;2023-07-08T10:10:49;44.90;29.00
8595;DHT22;4335;48.860;9.198;2023-07-08T10:13:26;44.80;29.00
8595;DHT22;4335;48.860;9.198;2023-07-08T10:15:59;44.80;29.10
8595;DHT22;4335;48.860;9.198;2023-07-08T10:18:30;45.00;29.20
8595;DHT22;4335;48.860;9.198;2023-07-08T10:21:08;45.00;29.10
8595;DHT22;4335;48.860;9.198;2023-07-08T10:23:51;45.50;29.50
8595;DHT22;4335;48.860;9.198;2023-07-08T10:26:28;45.30;29.20
8595;DHT22;4335;48.860;9.198;2023-07-08T10:29:13;45.20;29.20
8595;DHT22;4335;48.860;9.198;2023-07-08T10:31:49;45.10;29.10
8595;DHT22;4335;48.860;9.198;2023-07-08T10:34:27;44.90;29.60
8595;DHT22;4335;48.860;9.198;2023-07-08T10:37:03;43.80;30.20
8595;DHT22;4335;48.860;9.198;2023-07-08T10:39:55;42.80;31.40
8595;DHT22;4335;48.860;9.198;2023-07-08T10:42:38;41.60;32.10
8595;DHT22;4335;48.860;9.198;2023-07-08T10:45:13;40.80;33.70
8595;DHT22;4335;48.860;9.198;2023-07-08T10:48:06;39.10;35.80
8595;DHT22;4335;48.860;9.198;2023-07-08T10:50:48;38.00;37.60
8595;DHT22;4335;48.860;9.198;2023-07-08T10:53:39;37.00;39.20
8595;DHT22;4335;48.860;9.198;2023-07-08T10:56:14;36.50;40.50
8595;DHT22;4335;48.860;9.198;2023-07-08T10:58:56;35.90;40.90
8595;DHT22;4335;48.860;9.198;2023-07-08T11:01:33;35.20;42.50
8595;DHT22;4335;48.860;9.198;2023-07-08T11:04:20;34.90;43.40
8595;DHT22;4335;48.860;9.198;2023-07-08T11:06:56;34.60;44.10
8595;DHT22;4335;48.860;9.198;2023-07-08T11:09:34;34.00;44.40
8595;DHT22;4335;48.860;9.198;2023-07-08T11:12:17;33.60;45.80
8595;DHT22;4335;48.860;9.198;2023-07-08T11:14:51;33.10;46.10
8595;DHT22;4335;48.860;9.198;2023-07-08T11:17:27;32.70;46.50
8595;DHT22;4335;48.860;9.198;2023-07-08T11:20:03;32.40;47.20
8595;DHT22;4335;48.860;9.198;2023-07-08T11:22:51;31.80;48.10
8595;DHT22;4335;48.860;9.198;2023-07-08T11:25:23;31.30;48.50
8595;DHT22;4335;48.860;9.198;2023-07-08T11:27:57;31.00;49.10
8595;DHT22;4335;48.860;9.198;2023-07-08T11:30:32;31.10;49.30
8595;DHT22;4335;48.860;9.198;2023-07-08T11:33:10;31.10;49.40
8595;DHT22;4335;48.860;9.198;2023-07-08T11:35:44;31.20;49.50
8595;DHT22;4335;48.860;9.198;2023-07-08T11:38:14;31.20;49.50
8595;DHT22;4335;48.860;9.198;2023-07-08T11:40:54;31.30;49.40
8595;DHT22;4335;48.860;9.198;2023-07-08T11:43:24;31.30;49.10
8595;DHT22;4335;48.860;9.198;2023-07-08T11:45:56;31.20;49.20
8595;DHT22;4335;48.860;9.198;2023-07-08T11:48:29;31.30;49.20
8595;DHT22;4335;48.860;9.198;2023-07-08T11:51:04;31.20;49.20
8595;DHT22;4335;48.860;9.198;2023-07-08T11:53:35;31.10;50.00
8595;DHT22;4335;48.860;9.198;2023-07-08T11:56:17;31.00;49.80
8595;DHT22;4335;48.860;9.198;2023-07-08T11:59:08;31.10;49.70
8595;DHT22;4335;48.860;9.198;2023-07-08T12:01:41;30.90;49.80
8595;DHT22;4335;48.860;9.198;2023-07-08T12:04:27;31.00;50.20
8595;DHT22;4335;48.860;9.198;2023-07-08T12:07:09;31.00;50.00
8595;DHT22;4335;48.860;9.198;2023-07-08T12:09:56;30.90;50.00
8595;DHT22;4335;48.860;9.198;2023-07-08T12:12:33;30.90;50.40
8595;DHT22;4335;48.860;9.198;2023-07-08T12:15:12;30.70;50.40
8595;DHT22;4335;48.860;9.198;2023-07-08T12:17:43;30.60;50.00
8595;DHT22;4335;48.860;9.198;2023-07-08T12:20:18;30.50;49.90
8595;DHT22;4335;48.860;9.198;2023-07-08T12:22:55;30.40;50.70
8595;DHT22;4335;48.860;9.198;2023-07-08T12:25:29;30.30;50.50
8595;DHT22;4335;48.860;9.198;2023-07-08T12:27:58;30.20;50.80
8595;DHT22;4335;48.860;9.198;2023-07-08T12:30:29;30.30;51.50
8595;DHT22;4335;48.860;9.198;2023-07-08T12:32:59;30.30;51.60
8595;DHT22;4335;48.860;9.198;2023-07-08T12:35:29;30.30;51.00
8595;DHT22;4335;48.860;9.198;2023-07-08T12:37:59;30.30;50.90
8595;DHT22;4335;48.860;9.198;2023-07-08T12:40:28;30.20;51.00
8595;DHT22;4335;48.860;9.198;2023-07-08T12:42:58;30.20;50.80
8595;DHT22;4335;48.860;9.198;2023-07-08T12:45:31;30.20;50.80
8595;DHT22;4335;48.860;9.198;2023-07-08T12:48:04;30.20;50.60
8595;DHT22;4335;48.860;9.198;2023-07-08T12:50:32;30.20;50.50
8595;DHT22;4335;48.860;9.198;2023-07-08T12:53:04;30.20;50.80
8595;DHT22;4335;48.860;9.198;2023-07-08T12:55:42;30.30;50.40
8595;DHT22;4335;48.860;9.198;2023-07-08T12:58:13;30.30;50.70
8595;DHT22;4335;48.860;9.198;2023-07-08T13:00:42;30.30;50.50
8595;DHT22;4335;48.860;9.198;2023-07-08T13:03:14;30.30;49.80
8595;DHT22;4335;48.860;9.198;2023-07-08T13:05:44;30.20;50.00
8595;DHT22;4335;48.860;9.198;2023-07-08T13:08:21;30.30;50.60
8595;DHT22;4335;48.860;9.198;2023-07-08T13:10:49;30.30;50.30
8595;DHT22;4335;48.860;9.198;2023-07-08T13:13:23;30.30;50.00
8595;DHT22;4335;48.860;9.198;2023-07-08T13:15:51;30.30;50.70
8595;DHT22;4335;48.860;9.198;2023-07-08T13:18:24;30.40;50.90
8595;DHT22;4335;48.860;9.198;2023-07-08T13:20:54;30.30;50.90
8595;DHT22;4335;48.860;9.198;2023-07-08T13:23:22;30.30;51.50
8595;DHT22;4335;48.860;9.198;2023-07-08T13:25:50;30.40;50.40
8595;DHT22;4335;48.860;9.198;2023-07-08T13:28:24;30.50;50.60
8595;DHT22;4335;48.860;9.198;2023-07-08T13:30:53;30.40;50.10
8595;DHT22;4335;48.860;9.198;2023-07-08T13:33:23;30.50;50.40
8595;DHT22;4335;48.860;9.198;2023-07-08T13:35:52;30.50;50.70
8595;DHT22;4335;48.860;9.198;2023-07-08T13:38:22;30.50;50.00
8595;DHT22;4335;48.860;9.198;2023-07-08T13:40:55;30.60;50.00
8595;DHT22;4335;48.860;9.198;2023-07-08T13:43:24;30.60;49.70
8595;DHT22;4335;48.860;9.198;2023-07-08T13:45:52;30.50;50.20
8595;DHT22;4335;48.860;9.198;2023-07-08T13:48:27;30.50;50.60
8595;DHT22;4335;48.860;9.198;2023-07-08T13:50:58;30.30;50.90
8595;DHT22;4335;48.860;9.198;2023-07-08T13:53:44;30.30;50.90
8595;DHT22;4335;48.860;9.198;2023-07-08T13:56:14;30.30;51.30
8595;DHT22;4335;48.860;9.198;2023-07-08T13:58:44;30.40;51.30
8595;DHT22;4335;48.860;9.198;2023-07-08T14:01:17;30.50;51.40
8595;DHT22;4335;48.860;9.198;2023-07-08T14:03:47;30.40;51.30
8595;DHT22;4335;48.860;9.198;2023-07-08T14:06:15;30.40;51.10
8595;DHT22;4335;48.860;9.198;2023-07-08T14:08:43;30.40;50.80
8595;DHT22;4335;48.860;9.198;2023-07-08T14:11:10;30.50;50.60
8595;DHT22;4335;48.860;9.198;2023-07-08T14:13:38;30.70;50.00
8595;DHT22;4335;48.860;9.198;2023-07-08T14:16:14;30.90;49.20
8595;DHT22;4335;48.860;9.198;2023-07-08T14:18:47;30.80;49.60
8595;DHT22;4335;48.860;9.198;2023-07-08T14:21:21;30.90;49.00
8595;DHT22;4335;48.860;9.198;2023-07-08T14:23:48;30.90;49.00
8595;DHT22;4335;48.860;9.198;2023-07-08T14:26:15;30.90;49.10
8595;DHT22;4335;48.860;9.198;2023-07-08T14:28:43;31.00;48.00
8595;DHT22;4335;48.860;9.198;2023-07-08T14:31:32;30.90;48.20
8595;DHT22;4335;48.860;9.198;2023-07-08T14:34:04;31.00;47.80
8595;DHT22;4335;48.860;9.198;2023-07-08T14:36:33;31.00;48.10
8595;DHT22;4335;48.860;9.198;2023-07-08T14:39:00;30.90;48.20
8595;DHT22;4335;48.860;9.198;2023-07-08T14:41:28;30.90;47.40
8595;DHT22;4335;48.860;9.198;2023-07-08T14:43:55;30.90;48.20
8595;DHT22;4335;48.860;9.198;2023-07-08T14:46:25;30.70;48.70
8595;DHT22;4335;48.860;9.198;2023-07-08T14:48:56;30.50;49.40
8595;DHT22;4335;48.860;9.198;2023-07-08T14:51:25;30.40;49.90
8595;DHT22;4335;48.860;9.198;2023-07-08T14:53:55;30.30;50.00
8595;DHT22;4335;48.860;9.198;2023-07-08T14:56:22;30.20;50.50
8595;DHT22;4335;48.860;9.198;2023-07-08T14:58:50;30.30;50.60
8595;DHT22;4335;48.860;9.198;2023-07-08T15:01:21;30.40;50.60
8595;DHT22;4335;48.860;9.198;2023-07-08T15:03:50;30.40;50.60
8595;DHT22;4335;48.860;9.198;2023-07-08T15:06:17;30.30;50.90
8595;DHT22;4335;48.860;9.198;2023-07-08T15:08:46;30.50;51.00
8595;DHT22;4335;48.860;9.198;2023-07-08T15:11:17;30.50;50.90
8595;DHT22;4335;48.860;9.198;2023-07-08T15:13:45;30.50;51.20
8595;DHT22;4335;48.860;9.198;2023-07-08T15:16:14;30.70;50.90
8595;DHT22;4335;48.860;9.198;2023-07-08T15:18:42;30.80;50.80
8595;DHT22;4335;48.860;9.198;2023-07-08T15:21:10;30.80;50.90
8595;DHT22;4335;48.860;9.198;2023-07-08T15:23:38;30.80;50.30
8595;DHT22;4335;48.860;9.198;2023-07-08T15:26:09;30.70;50.90
8595;DHT22;4335;48.860;9.198;2023-07-08T15:28:46;30.50;50.80
8595;DHT22;4335;48.860;9.198;2023-07-08T15:31:18;30.40;51.00
8595;DHT22;4335;48.860;9.198;2023-07-08T15:33:52;30.50;50.90
8595;DHT22;4335;48.860;9.198;2023-07-08T15:36:22;30.40;51.00
8595;DHT22;4335;48.860;9.198;2023-07-08T15:38:53;30.30;51.20
8595;DHT22;4335;48.860;9.198;2023-07-08T15:41:23;30.70;50.00
8595;DHT22;4335;48.860;9.198;2023-07-08T15:43:55;30.80;49.60
8595;DHT22;4335;48.860;9.198;2023-07-08T15:46:32;31.00;49.60
8595;DHT22;4335;48.860;9.198;2023-07-08T15:49:15;31.00;49.80
8595;DHT22;4335;48.860;9.198;2023-07-08T15:51:43;31.00;48.80
8595;DHT22;4335;48.860;9.198;2023-07-08T15:54:12;30.80;49.60
8595;DHT22;4335;48.860;9.198;2023-07-08T15:56:41;30.80;49.90
8595;DHT22;4335;48.860;9.198;2023-07-08T15:59:11;30.60;50.30
8595;DHT22;4335;48.860;9.198;2023-07-08T16:01:41;30.70;50.60
8595;DHT22;4335;48.860;9.198;2023-07-08T16:04:23;30.60;50.40
8595;DHT22;4335;48.860;9.198;2023-07-08T16:06:53;30.50;50.70
8595;DHT22;4335;48.860;9.198;2023-07-08T16:09:21;30.70;50.70
8595;DHT22;4335;48.860;9.198;2023-07-08T16:11:55;30.70;50.60
8595;DHT22;4335;48.860;9.198;2023-07-08T16:14:23;30.60;50.70
8595;DHT22;4335;48.860;9.198;2023-07-08T16:16:59;30.50;51.00
8595;DHT22;4335;48.860;9.198;2023-07-08T16:19:27;30.40;51.10
8595;DHT22;4335;48.860;9.198;2023-07-08T16:21:56;30.30;51.20
8595;DHT22;4335;48.860;9.198;2023-07-08T16:24:23;30.50;51.10
8595;DHT22;4335;48.860;9.198;2023-07-08T16:26:55;30.60;50.00
8595;DHT22;4335;48.860;9.198;2023-07-08T16:29:24;30.70;50.30
8595;DHT22;4335;48.860;9.198;2023-07-08T16:31:56;30.60;50.60